Meath Environmental Platform

Observations for Trim Market St

Time AQI Temp °C Hum % Pres Pa CO μg/m³ H₂S μg/m³ NO μg/m³ NO₂ μg/m³ O₃ μg/m³ SO₂ μg/m³ PM1 μg/m³ PM2.5 μg/m³ PM10 μg/m³
Saturday 15 August 2026
20:18 3 21.2 47 60,297 0 0.77 1.42 10.06 73.31 0 0 2.59 2.94
20:17 3 21.2 47 60,424 0 0.35 1.4 9.98 72.95 0 0 2.07 2.28
20:16 3 21.2 47 60,481 0 0.51 1.41 10.51 71.98 0 0 2.08 2.28
20:15 3 21.3 47 60,671 0 1.67 1.41 11.52 69.95 0 0 2.08 2.29
20:14 3 21.3 46 60,870 0 1.59 1.41 12.18 69.59 0 0 3.12 3.43
20:13 3 21.3 46 61,111 0 1.8 1.41 17.63 62.52 0 0 2.09 2.3
20:12 3 21.4 46 61,294 0 0.64 1.44 10.01 74.78 0 0 2.1 2.31
20:11 3 21.4 46 61,396 0 0.24 1.41 10.73 71.99 0 0 2.1 2.31
20:08 3 21.4 46 61,573 0 2.09 1.38 16.43 62.42 0 0 2.11 2.32
20:07 3 21.5 46 61,680 0 1.75 1.39 21.17 55.4 0 0 2.63 2.9
20:06 3 21.5 46 61,680 0 2.51 1.39 21.81 54.45 0 0 2.12 2.33
20:04 3 21.6 46 61,806 0 2.38 1.38 13.29 64.49 0 0 2.12 2.12
19:53 3 21.9 44 62,746 0 5.33 1.42 46.06 38.85 0 0 2.17 2.39
19:52 3 21.9 44 62,859 0 3.77 1.42 15.1 64.76 0 0 2.7 2.97
19:51 3 21.9 44 62,974 0 3.62 1.45 18.08 61.75 0 0 2.18 2.4
19:50 3 22 44 63,127 0 4.3 1.45 19.52 65.71 0 0 2.19 2.41
19:49 3 22 44 63,300 0 3.61 1.49 12.47 69.92 0 0 2.2 2.42
19:48 3 22 44 63,448 0 4.06 1.48 18.36 67.9 0 0 2.2 2.42
19:47 3 22.1 44 63,596 0 4.17 1.48 18.32 64.37 0 0 2.21 2.43
19:46 3 22.1 43 63,762 0 3.4 1.49 13.93 73.08 0 0 2.22 2.44